NOTE: This page is experimental. Bug reports to carter.barry@gmail.com. Query language is SQLite3.

Prepend rss. to the URL for an RSS feed, csv. to the URL for CSV output.

QUERY: SELECT station_id AS "Code", observation_time AS "Time (GMT)", ROUND(altim_in_hg,2) AS "Pressure (inches)", ROUND(temp_c*1.8+32, 1) AS "Temp. (F)", ROUND(wind_speed_kt*1.15077945) AS "Wind (mph)", (CASE WHEN wind_gust_kt THEN ROUND(wind_gust_kt*1.15077945) ELSE "NA" END) AS "Gust (mph)", DATETIME(observation_time,'-7 hours') AS "Time (MST)" FROM metar WHERE station_id='KABQ' ORDER BY observation_time DESC

To edit query (or if query above is munged), see textbox at bottom of page

Empty result may indicate error: I'm not sure why my error checking code isn't working.

Source code

Code Time (GMT) Pressure (inches) Temp. (F) Wind (mph) Gust (mph) Time (MST)
KABQ 2018-07-21T12:52:00Z 30.21 73.0 0.0 NA 2018-07-21 05:52:00
KABQ 2018-07-21T11:52:00Z 30.2 72.0 9.0 NA 2018-07-21 04:52:00
KABQ 2018-07-21T10:52:00Z 30.2 72.0 8.0 NA 2018-07-21 03:52:00
KABQ 2018-07-21T09:52:00Z 30.19 77.0 8.0 NA 2018-07-21 02:52:00
KABQ 2018-07-21T08:52:00Z 30.18 79.0 6.0 NA 2018-07-21 01:52:00
KABQ 2018-07-21T07:52:00Z 30.17 82.0 5.0 NA 2018-07-21 00:52:00
KABQ 2018-07-21T06:52:00Z 30.18 82.9 7.0 NA 2018-07-20 23:52:00
KABQ 2018-07-21T05:52:00Z 30.19 82.9 6.0 NA 2018-07-20 22:52:00
KABQ 2018-07-21T04:52:00Z 30.18 82.9 9.0 NA 2018-07-20 21:52:00
KABQ 2018-07-21T03:52:00Z 30.18 84.9 13.0 NA 2018-07-20 20:52:00
KABQ 2018-07-21T02:52:00Z 30.18 86.0 12.0 NA 2018-07-20 19:52:00
KABQ 2018-07-21T02:13:00Z 30.14 88.0 20.0 32.0 2018-07-20 19:13:00
KABQ 2018-07-21T01:52:00Z 30.11 89.1 16.0 NA 2018-07-20 18:52:00
KABQ 2018-07-21T00:52:00Z 30.08 93.0 14.0 NA 2018-07-20 17:52:00
KABQ 2018-07-20T23:52:00Z 30.08 97.0 8.0 NA 2018-07-20 16:52:00
KABQ 2018-07-20T22:52:00Z 30.08 97.0 5.0 NA 2018-07-20 15:52:00
KABQ 2018-07-20T21:52:00Z 30.11 97.0 7.0 NA 2018-07-20 14:52:00
KABQ 2018-07-20T20:52:00Z 30.13 95.0 9.0 18.0 2018-07-20 13:52:00
KABQ 2018-07-20T19:52:00Z 30.14 93.9 3.0 16.0 2018-07-20 12:52:00
KABQ 2018-07-20T18:52:00Z 30.17 93.0 7.0 NA 2018-07-20 11:52:00
KABQ 2018-07-20T17:52:00Z 30.19 90.0 5.0 NA 2018-07-20 10:52:00
KABQ 2018-07-20T16:52:00Z 30.2 87.1 6.0 NA 2018-07-20 09:52:00
KABQ 2018-07-20T15:52:00Z 30.21 84.9 3.0 NA 2018-07-20 08:52:00
KABQ 2018-07-20T14:52:00Z 30.21 80.1 5.0 NA 2018-07-20 07:52:00
KABQ 2018-07-20T13:52:00Z 30.21 75.9 5.0 NA 2018-07-20 06:52:00

Enter query below (must start w/ SELECT):

Schema Raw SQLite3 db RSS feed for this query